Time;durP1;ratioP1;P1;durP2;ratioP2;P2;SDS_P1;SDS_P2;PMS_P1;PMS_P2;Temp;Humidity;BMP_temperature;BMP_pressure;BME280_temperature;BME280_humidity;BME280_pressure;Samples;Min_cycle;Max_cycle;Signal;HPM_P1;HPM_P2
2022/11/05 00:09:32;;;;;;;6.38;3.03;;;5.80;99.90;;;;;;5001917;28;20042;-88
2022/11/05 00:17:34;;;;;;;6.35;3.97;;;6.40;99.90;;;;;;5012379;28;20029;-88
2022/11/05 00:20:00;;;;;;;6.22;2.80;;;6.30;99.90;;;;;;5016570;28;20029;-75
2022/11/05 00:25:17;;;;;;;5.35;2.97;;;6.40;99.90;;;;;;5018007;28;20044;-78
2022/11/05 00:27:43;;;;;;;4.65;2.65;;;6.30;99.90;;;;;;5013164;28;20030;-79
2022/11/05 00:30:11;;;;;;;7.55;3.90;;;6.50;99.90;;;;;;4991127;28;20061;-75
2022/11/05 00:32:37;;;;;;;5.38;3.15;;;6.60;99.90;;;;;;5004427;28;20029;-88
2022/11/05 00:35:04;;;;;;;4.25;2.90;;;6.60;99.90;;;;;;4986665;28;20052;-76
2022/11/05 00:37:29;;;;;;;5.47;2.22;;;6.70;99.90;;;;;;4998521;28;20402;-76
2022/11/05 00:39:55;;;;;;;6.68;2.50;;;6.70;99.90;;;;;;4976568;28;20030;-78
2022/11/05 00:45:05;;;;;;;6.68;3.47;;;6.80;99.90;;;;;;5011114;28;20100;-83
2022/11/05 00:50:18;;;;;;;4.95;2.28;;;6.90;99.90;;;;;;4981368;28;20045;-87
2022/11/05 00:52:54;;;;;;;3.78;2.47;;;6.90;99.90;;;;;;4985529;28;20021;-74
2022/11/05 00:55:33;;;;;;;5.13;2.40;;;7.00;99.90;;;;;;4990643;28;20109;-76
2022/11/05 00:57:59;;;;;;;5.97;2.15;;;7.00;99.90;;;;;;5005907;28;20030;-80
2022/11/05 01:00:28;;;;;;;3.28;1.65;;;6.90;99.90;;;;;;4999768;28;20044;-88
2022/11/05 01:02:57;;;;;;;5.93;2.28;;;7.00;99.90;;;;;;4975361;28;20029;-76
2022/11/05 01:05:23;;;;;;;4.25;1.23;;;7.00;99.90;;;;;;5004424;28;20109;-79
2022/11/05 01:07:51;;;;;;;4.70;2.15;;;6.90;99.90;;;;;;4992031;28;20120;-78
2022/11/05 01:10:16;;;;;;;4.78;1.73;;;7.00;99.90;;;;;;5015678;28;20022;-82
2022/11/05 01:12:42;;;;;;;3.85;1.60;;;6.90;99.90;;;;;;5013553;28;20557;-83
2022/11/05 01:15:08;;;;;;;5.28;1.52;;;6.90;99.90;;;;;;4977976;28;20080;-74
2022/11/05 01:17:34;;;;;;;3.53;1.08;;;6.70;99.90;;;;;;5014351;28;20113;-75
2022/11/05 01:19:59;;;;;;;2.35;1.00;;;6.60;99.90;;;;;;4995335;28;20386;-76
2022/11/05 01:22:25;;;;;;;2.13;0.80;;;6.50;99.90;;;;;;5011294;28;20022;-79
2022/11/05 01:24:50;;;;;;;1.90;0.80;;;6.50;99.90;;;;;;4983967;28;20054;-87
2022/11/05 01:27:16;;;;;;;1.95;1.20;;;6.40;99.90;;;;;;5012398;28;20502;-80
2022/11/05 01:29:42;;;;;;;2.17;0.82;;;6.40;99.90;;;;;;5014925;28;20033;-87
2022/11/05 01:32:07;;;;;;;2.10;0.70;;;6.30;99.90;;;;;;4999066;28;20052;-74
2022/11/05 01:34:33;;;;;;;2.17;0.93;;;6.20;99.90;;;;;;4994581;28;20038;-87
2022/11/05 01:36:59;;;;;;;1.70;0.70;;;6.20;99.90;;;;;;4979639;28;20118;-75
2022/11/05 01:39:24;;;;;;;1.90;0.73;;;6.10;99.90;;;;;;5016642;28;20100;-75
2022/11/05 01:41:50;;;;;;;2.65;0.98;;;6.10;99.90;;;;;;4987614;28;20026;-76
2022/11/05 01:44:51;;;;;;;1.95;0.80;;;6.00;99.90;;;;;;4991509;28;20041;-78
2022/11/05 01:47:50;;;;;;;2.10;0.75;;;5.90;99.90;;;;;;5004246;28;20046;-78
2022/11/05 01:50:46;;;;;;;1.80;0.80;;;6.00;99.90;;;;;;4993832;28;20501;-86
2022/11/05 01:53:17;;;;;;;1.98;0.65;;;5.90;99.90;;;;;;4992181;28;20069;-77
2022/11/05 01:55:56;;;;;;;1.98;0.73;;;5.80;99.90;;;;;;5017060;28;20045;-80
2022/11/05 01:58:27;;;;;;;1.80;0.82;;;5.80;99.90;;;;;;4989116;28;20390;-75
2022/11/05 02:00:55;;;;;;;2.03;0.60;;;5.70;99.90;;;;;;4991794;28;20034;-86
2022/11/05 02:03:21;;;;;;;1.88;0.80;;;5.70;99.90;;;;;;5013715;28;20060;-85
2022/11/05 02:05:50;;;;;;;2.55;0.80;;;5.60;99.90;;;;;;5014001;28;20029;-77
2022/11/05 02:08:30;;;;;;;2.78;1.05;;;5.60;99.90;;;;;;4998947;28;20021;-87
2022/11/05 02:10:57;;;;;;;1.98;0.70;;;5.60;99.90;;;;;;5008274;28;20109;-80
2022/11/05 02:13:22;;;;;;;2.22;0.90;;;5.50;99.90;;;;;;5016257;28;20390;-76
2022/11/05 02:16:09;;;;;;;1.77;0.75;;;5.50;99.90;;;;;;4994856;28;20038;-76
2022/11/05 02:19:18;;;;;;;1.38;0.60;;;5.40;99.90;;;;;;4975692;28;20037;-75
2022/11/05 02:22:07;;;;;;;2.42;0.70;;;5.50;99.90;;;;;;4950637;28;20510;-74
2022/11/05 02:24:55;;;;;;;1.75;0.60;;;5.30;99.90;;;;;;4963554;28;20035;-79
2022/11/05 02:27:56;;;;;;;2.90;0.70;;;5.20;99.90;;;;;;4955810;28;20523;-76
2022/11/05 02:30:27;;;;;;;2.17;0.70;;;5.30;99.90;;;;;;4956736;28;20038;-75
2022/11/05 02:32:59;;;;;;;2.33;0.82;;;5.30;99.90;;;;;;4964295;28;20057;-77
2022/11/05 02:36:19;;;;;;;2.67;0.60;;;5.30;99.90;;;;;;4949965;28;20054;-80
2022/11/05 02:39:00;;;;;;;1.77;0.70;;;5.30;99.90;;;;;;4921943;29;20031;-80
2022/11/05 02:41:39;;;;;;;2.40;0.70;;;5.30;99.90;;;;;;4940194;29;20035;-81
2022/11/05 02:44:21;;;;;;;2.45;0.70;;;5.30;99.90;;;;;;4939442;29;20626;-82
2022/11/05 02:46:49;;;;;;;3.03;0.65;;;5.20;99.90;;;;;;4942413;29;20079;-83
2022/11/05 02:49:27;;;;;;;3.70;0.70;;;5.20;99.90;;;;;;4922533;29;20041;-87
2022/11/05 02:51:52;;;;;;;1.80;0.50;;;5.10;99.90;;;;;;4940173;29;20063;-75
2022/11/05 02:54:36;;;;;;;2.65;0.82;;;5.10;99.90;;;;;;4922507;29;20639;-76
2022/11/05 02:57:03;;;;;;;1.95;0.60;;;5.00;99.90;;;;;;4922628;28;20058;-74
2022/11/05 02:59:29;;;;;;;2.03;0.63;;;4.90;99.90;;;;;;4951602;28;20181;-75
2022/11/05 03:01:56;;;;;;;1.85;0.60;;;4.80;99.90;;;;;;4931069;28;20035;-77
2022/11/05 03:04:23;;;;;;;1.90;0.90;;;5.00;99.90;;;;;;4931894;28;20138;-76
2022/11/05 03:07:29;;;;;;;2.55;0.70;;;5.00;99.90;;;;;;4956706;28;20042;-76
2022/11/05 03:10:17;;;;;;;2.63;0.68;;;5.00;99.90;;;;;;4950011;28;20047;-77
2022/11/05 03:12:58;;;;;;;3.42;0.60;;;4.90;99.90;;;;;;4968439;28;20057;-81
2022/11/05 03:15:51;;;;;;;2.13;0.63;;;4.80;99.90;;;;;;4989259;28;20096;-85
2022/11/05 03:18:39;;;;;;;1.38;0.50;;;4.80;99.90;;;;;;5000513;28;20034;-79
2022/11/05 03:21:19;;;;;;;1.70;0.50;;;4.80;99.90;;;;;;5018506;28;20025;-75
2022/11/05 03:24:12;;;;;;;2.05;0.70;;;4.80;99.90;;;;;;4977141;28;21126;-83
2022/11/05 03:26:50;;;;;;;2.55;0.50;;;4.70;99.90;;;;;;5013586;28;20496;-76
2022/11/05 03:29:22;;;;;;;2.13;0.60;;;4.60;99.90;;;;;;5000127;28;20085;-75
2022/11/05 03:31:51;;;;;;;1.80;0.80;;;4.60;99.90;;;;;;5015065;28;20026;-76
2022/11/05 03:34:21;;;;;;;1.65;0.60;;;4.60;99.90;;;;;;4993209;28;20125;-80
2022/11/05 03:36:53;;;;;;;1.77;0.60;;;4.50;99.90;;;;;;4972646;28;20037;-75
2022/11/05 03:39:26;;;;;;;1.55;0.60;;;4.50;99.90;;;;;;4994250;28;20080;-75
2022/11/05 03:41:54;;;;;;;2.65;0.70;;;4.50;99.90;;;;;;4973611;28;20027;-87
2022/11/05 03:44:24;;;;;;;1.83;0.60;;;4.50;99.90;;;;;;5016326;28;20115;-75
2022/11/05 03:46:54;;;;;;;1.40;0.52;;;4.50;99.90;;;;;;4992329;28;20038;-79
2022/11/05 03:49:31;;;;;;;1.20;0.57;;;4.70;99.90;;;;;;4995610;28;20089;-77
2022/11/05 03:52:08;;;;;;;1.25;0.50;;;4.60;99.90;;;;;;4975264;28;20034;-87
2022/11/05 03:54:34;;;;;;;2.33;0.57;;;4.50;99.90;;;;;;5010765;28;20037;-76
2022/11/05 03:57:13;;;;;;;1.52;0.50;;;4.60;99.90;;;;;;4983570;28;20053;-75
2022/11/05 03:59:42;;;;;;;1.13;0.50;;;4.60;99.90;;;;;;4997118;28;20471;-86
2022/11/05 04:02:13;;;;;;;1.80;0.50;;;4.60;99.90;;;;;;5006093;28;20030;-81
2022/11/05 04:04:39;;;;;;;1.30;0.50;;;4.50;99.90;;;;;;5003641;28;20063;-79
2022/11/05 04:15:18;;;;;;;1.35;0.50;;;4.50;99.90;;;;;;4984711;28;20397;-79
2022/11/05 04:17:44;;;;;;;1.27;0.50;;;4.60;99.90;;;;;;5014518;28;20021;-84
2022/11/05 04:25:49;;;;;;;1.60;0.60;;;4.50;99.90;;;;;;5014357;28;20746;-84
2022/11/05 04:28:15;;;;;;;1.50;0.50;;;4.40;99.90;;;;;;4987255;28;20030;-76
2022/11/05 04:30:43;;;;;;;1.63;0.60;;;4.30;99.90;;;;;;5014157;28;20032;-75
2022/11/05 04:33:14;;;;;;;1.85;0.60;;;4.20;99.90;;;;;;4989254;28;20040;-87
2022/11/05 04:35:47;;;;;;;1.85;0.55;;;4.30;99.90;;;;;;5012046;28;20049;-75
2022/11/05 04:38:18;;;;;;;1.23;0.50;;;4.20;99.90;;;;;;4999564;28;20037;-76
2022/11/05 04:40:44;;;;;;;1.70;0.55;;;4.20;99.90;;;;;;5000417;28;20044;-84
2022/11/05 04:43:16;;;;;;;1.55;0.55;;;4.20;99.90;;;;;;5014594;28;20092;-75
2022/11/05 04:45:42;;;;;;;2.03;0.38;;;4.20;99.90;;;;;;5012189;28;20037;-76
2022/11/05 04:48:07;;;;;;;1.40;0.60;;;4.20;99.90;;;;;;4990971;28;20548;-75
2022/11/05 04:50:33;;;;;;;2.00;0.60;;;4.20;99.90;;;;;;5014367;28;20034;-77
2022/11/05 04:52:59;;;;;;;1.45;0.57;;;4.00;99.90;;;;;;4986181;28;20029;-82
2022/11/05 04:55:26;;;;;;;1.30;0.60;;;4.00;99.90;;;;;;5013086;28;20026;-76
2022/11/05 04:57:53;;;;;;;1.27;0.50;;;4.00;99.90;;;;;;5010204;28;20089;-76
2022/11/05 05:00:20;;;;;;;1.58;0.63;;;3.90;99.90;;;;;;4993398;28;20029;-75
2022/11/05 05:02:46;;;;;;;1.50;0.50;;;3.90;99.90;;;;;;4983785;28;20029;-76
2022/11/05 05:05:13;;;;;;;1.77;0.50;;;4.00;99.90;;;;;;4997799;28;20063;-75
2022/11/05 05:07:39;;;;;;;2.10;0.50;;;3.80;99.90;;;;;;4977606;28;20383;-87
2022/11/05 05:10:06;;;;;;;3.80;0.70;;;3.90;99.90;;;;;;4993091;28;20029;-75
2022/11/05 05:12:32;;;;;;;1.38;0.57;;;3.80;99.90;;;;;;5014033;28;20045;-80
2022/11/05 05:14:58;;;;;;;1.23;0.50;;;3.80;99.90;;;;;;4984967;28;20368;-75
2022/11/05 05:17:24;;;;;;;2.75;0.65;;;3.80;99.90;;;;;;4980656;28;20086;-83
2022/11/05 05:22:34;;;;;;;2.00;0.50;;;4.00;99.90;;;;;;5012838;28;20030;-87
2022/11/05 05:24:59;;;;;;;1.42;0.50;;;4.00;99.90;;;;;;5014197;28;20041;-87
2022/11/05 05:27:28;;;;;;;1.70;0.50;;;4.00;99.90;;;;;;4976804;28;20116;-75
2022/11/05 05:29:55;;;;;;;1.67;0.60;;;3.80;99.90;;;;;;5012683;28;20052;-79
2022/11/05 05:32:21;;;;;;;1.30;0.43;;;3.90;99.90;;;;;;5005738;28;20038;-88
2022/11/05 05:34:47;;;;;;;1.50;0.50;;;3.70;99.90;;;;;;5015754;28;20566;-78
2022/11/05 05:37:12;;;;;;;1.33;0.43;;;3.70;99.90;;;;;;5006836;28;20109;-88
2022/11/05 05:39:38;;;;;;;1.15;0.47;;;3.70;99.90;;;;;;4999550;28;20117;-75
2022/11/05 05:42:04;;;;;;;1.40;0.50;;;3.70;99.90;;;;;;5017774;28;20026;-85
2022/11/05 05:44:29;;;;;;;1.20;0.50;;;3.70;99.90;;;;;;4995140;28;20392;-77
2022/11/05 05:46:55;;;;;;;2.45;0.47;;;3.80;99.90;;;;;;5001074;28;20025;-76
2022/11/05 05:49:21;;;;;;;2.05;0.50;;;3.70;99.90;;;;;;4998996;28;20034;-75
2022/11/05 05:51:49;;;;;;;1.48;0.43;;;3.90;99.90;;;;;;4989658;28;20116;-83
2022/11/05 05:54:15;;;;;;;1.55;0.50;;;3.80;99.90;;;;;;4997975;28;20388;-86
2022/11/05 05:56:44;;;;;;;1.92;0.40;;;3.70;99.90;;;;;;5015635;28;20030;-75
2022/11/05 05:59:10;;;;;;;1.08;0.50;;;3.70;99.90;;;;;;4989385;28;20030;-75
2022/11/05 06:01:37;;;;;;;3.17;0.50;;;3.60;99.90;;;;;;5000810;28;20462;-87
2022/11/05 06:04:03;;;;;;;1.33;0.40;;;3.60;99.90;;;;;;4997777;28;20029;-79
2022/11/05 06:06:28;;;;;;;2.15;0.60;;;3.50;99.90;;;;;;4972871;28;20364;-75
2022/11/05 06:08:55;;;;;;;0.93;0.40;;;3.50;99.90;;;;;;5019747;28;20032;-78
2022/11/05 06:11:21;;;;;;;1.30;0.50;;;3.60;99.90;;;;;;4996975;28;20038;-87
2022/11/05 06:13:47;;;;;;;1.35;0.40;;;3.60;99.90;;;;;;5012121;28;20390;-77
2022/11/05 06:16:13;;;;;;;2.22;0.50;;;3.60;99.90;;;;;;4989581;28;20022;-86
2022/11/05 06:18:39;;;;;;;1.30;0.40;;;3.60;99.90;;;;;;4997173;28;20471;-75
2022/11/05 06:21:10;;;;;;;3.45;0.50;;;3.60;99.90;;;;;;5017064;28;20026;-87
2022/11/05 06:23:38;;;;;;;2.03;0.43;;;3.60;99.90;;;;;;5014498;28;20029;-77
2022/11/05 06:26:09;;;;;;;1.55;0.40;;;3.60;99.90;;;;;;5000145;28;20065;-77
2022/11/05 06:28:35;;;;;;;2.00;0.50;;;3.70;99.90;;;;;;4988699;28;20627;-76
2022/11/05 06:31:01;;;;;;;2.45;0.50;;;3.70;99.90;;;;;;5014944;28;20160;-76
2022/11/05 06:33:28;;;;;;;1.17;0.50;;;3.80;99.90;;;;;;4980244;28;20841;-80
2022/11/05 06:35:53;;;;;;;2.33;0.52;;;3.80;99.90;;;;;;4987089;28;20367;-76
2022/11/05 06:38:19;;;;;;;1.30;0.63;;;3.80;99.90;;;;;;5015136;28;20021;-83
2022/11/05 06:40:45;;;;;;;2.03;0.60;;;3.90;99.90;;;;;;5017530;28;20022;-76
2022/11/05 06:43:11;;;;;;;1.40;0.60;;;4.00;99.90;;;;;;5013663;28;20044;-83
2022/11/05 06:45:37;;;;;;;3.50;0.60;;;4.00;99.90;;;;;;5016515;28;20080;-76
2022/11/05 06:48:03;;;;;;;2.47;0.70;;;4.10;99.90;;;;;;4985423;28;20069;-81
2022/11/05 06:50:29;;;;;;;1.90;0.77;;;4.10;99.90;;;;;;4991483;28;20026;-77
2022/11/05 06:52:55;;;;;;;2.45;0.73;;;4.10;99.90;;;;;;4976296;28;20031;-78
2022/11/05 06:55:21;;;;;;;2.10;0.63;;;4.10;99.90;;;;;;4987300;28;20045;-76
2022/11/05 06:57:47;;;;;;;3.72;0.70;;;4.20;99.90;;;;;;4987711;28;20045;-75
2022/11/05 07:00:13;;;;;;;1.90;1.00;;;4.30;99.90;;;;;;4993591;28;20029;-76
2022/11/05 07:02:39;;;;;;;2.47;1.15;;;4.30;99.90;;;;;;5010487;28;20049;-85
2022/11/05 07:05:06;;;;;;;2.10;0.98;;;4.30;99.90;;;;;;4989059;28;20065;-76
2022/11/05 07:07:32;;;;;;;3.15;1.60;;;4.40;99.90;;;;;;4995136;28;20051;-76
2022/11/05 07:09:57;;;;;;;3.40;1.05;;;4.50;99.90;;;;;;5014425;28;20026;-79
2022/11/05 07:12:23;;;;;;;3.53;1.25;;;4.40;99.90;;;;;;5014482;28;20383;-76
2022/11/05 07:14:48;;;;;;;3.50;1.65;;;4.60;99.90;;;;;;5017435;28;20406;-75
2022/11/05 07:17:16;;;;;;;2.75;1.23;;;4.50;99.90;;;;;;4997334;28;20447;-76
2022/11/05 07:19:42;;;;;;;2.30;1.48;;;4.60;99.90;;;;;;4993769;28;20025;-78
2022/11/05 07:22:08;;;;;;;2.70;1.20;;;4.60;99.90;;;;;;5012390;28;20051;-77
2022/11/05 07:24:33;;;;;;;4.07;1.27;;;4.50;99.90;;;;;;4988116;28;20053;-77
2022/11/05 07:26:59;;;;;;;2.50;1.05;;;4.50;99.90;;;;;;4997222;28;20072;-86
2022/11/05 07:29:24;;;;;;;2.88;0.82;;;4.50;99.90;;;;;;5013896;28;20114;-87
2022/11/05 07:31:50;;;;;;;3.53;1.52;;;4.50;99.90;;;;;;4986724;28;20034;-76
2022/11/05 07:34:16;;;;;;;2.20;1.23;;;4.50;99.90;;;;;;5012809;28;20040;-79
2022/11/05 07:36:41;;;;;;;3.17;1.20;;;4.50;99.90;;;;;;5016991;28;20029;-76
2022/11/05 07:39:07;;;;;;;2.92;1.20;;;4.50;99.90;;;;;;4995281;28;20041;-79
2022/11/05 07:41:33;;;;;;;2.88;1.15;;;4.60;99.90;;;;;;4994229;28;20052;-79
2022/11/05 07:43:58;;;;;;;2.20;1.10;;;4.60;99.90;;;;;;4992895;28;20025;-82
2022/11/05 07:46:24;;;;;;;2.97;1.10;;;4.70;99.90;;;;;;4986663;28;20045;-86
2022/11/05 07:48:49;;;;;;;3.83;1.05;;;4.70;99.90;;;;;;5014468;28;20077;-78
2022/11/05 07:51:15;;;;;;;2.90;1.42;;;4.70;99.90;;;;;;5003980;28;20044;-77
2022/11/05 07:53:41;;;;;;;4.32;1.73;;;4.90;99.90;;;;;;4991801;28;20505;-84
2022/11/05 07:56:07;;;;;;;2.90;1.20;;;5.00;99.90;;;;;;4991909;28;20041;-82
2022/11/05 07:58:35;;;;;;;3.90;1.92;;;5.10;99.90;;;;;;4995671;28;20034;-86
2022/11/05 08:01:01;;;;;;;3.05;2.28;;;5.00;99.90;;;;;;4973578;28;20037;-76
2022/11/05 08:03:27;;;;;;;3.55;2.17;;;5.20;99.90;;;;;;5016624;28;20077;-77
2022/11/05 08:05:52;;;;;;;3.95;2.08;;;5.30;99.90;;;;;;5001958;28;20037;-76
2022/11/05 08:08:18;;;;;;;3.97;2.00;;;5.30;99.90;;;;;;4996915;28;20035;-86
2022/11/05 08:10:45;;;;;;;4.97;1.77;;;5.40;99.90;;;;;;5013807;28;20030;-83
2022/11/05 08:13:12;;;;;;;3.47;2.38;;;5.50;99.90;;;;;;4987643;28;20036;-77
2022/11/05 08:15:37;;;;;;;4.50;2.20;;;5.60;99.90;;;;;;4997741;28;20042;-78
2022/11/05 08:18:06;;;;;;;3.35;2.08;;;5.60;99.90;;;;;;5015408;28;20024;-78
2022/11/05 08:20:33;;;;;;;3.75;1.95;;;5.70;99.90;;;;;;5013394;28;20037;-85
2022/11/05 08:22:59;;;;;;;5.10;2.15;;;5.80;99.90;;;;;;4993718;28;20036;-77
2022/11/05 08:25:25;;;;;;;4.03;2.05;;;5.90;99.90;;;;;;5013187;28;20045;-79
2022/11/05 08:27:55;;;;;;;2.70;1.92;;;6.20;99.90;;;;;;5016023;28;20055;-85
2022/11/05 08:30:21;;;;;;;4.90;2.30;;;6.30;99.90;;;;;;5013287;28;20069;-86
2022/11/05 08:32:46;;;;;;;3.45;2.20;;;6.50;99.90;;;;;;4974647;28;20467;-77
2022/11/05 08:35:12;;;;;;;3.42;2.05;;;6.60;99.90;;;;;;4990546;28;20034;-78
2022/11/05 08:37:38;;;;;;;4.10;2.28;;;6.70;99.90;;;;;;4995758;28;20467;-78
2022/11/05 08:40:04;;;;;;;3.40;2.20;;;6.80;99.90;;;;;;5016912;28;20458;-84
2022/11/05 08:42:30;;;;;;;5.43;2.13;;;7.10;99.90;;;;;;4999403;28;20128;-77
2022/11/05 08:44:55;;;;;;;3.90;2.58;;;7.10;99.90;;;;;;5007807;28;20114;-78
2022/11/05 08:47:21;;;;;;;3.00;1.23;;;7.30;99.90;;;;;;5012595;28;20037;-77
2022/11/05 08:49:47;;;;;;;5.72;2.28;;;7.40;99.90;;;;;;5013226;28;20041;-77
2022/11/05 08:52:12;;;;;;;4.45;2.40;;;7.50;99.90;;;;;;4987162;28;20030;-78
2022/11/05 08:54:38;;;;;;;7.07;3.58;;;7.60;99.90;;;;;;5012891;28;20041;-84
2022/11/05 08:57:03;;;;;;;3.42;1.92;;;7.80;99.90;;;;;;5010790;28;20490;-77
2022/11/05 08:59:30;;;;;;;5.97;2.40;;;7.90;99.90;;;;;;5013607;28;20088;-77
2022/11/05 09:01:56;;;;;;;4.38;1.33;;;8.00;99.90;;;;;;5000346;28;20028;-76
2022/11/05 09:04:21;;;;;;;4.00;2.00;;;8.20;99.90;;;;;;4986947;28;20339;-85
2022/11/05 09:06:47;;;;;;;3.28;1.60;;;8.20;99.90;;;;;;5013135;28;20036;-81
2022/11/05 09:09:13;;;;;;;2.95;1.65;;;8.30;99.90;;;;;;5009936;28;20026;-77
2022/11/05 09:11:39;;;;;;;2.60;1.58;;;8.50;99.90;;;;;;5013012;28;20368;-82
2022/11/05 09:14:04;;;;;;;3.13;1.67;;;8.50;99.90;;;;;;5002481;28;20029;-77
2022/11/05 09:16:33;;;;;;;4.93;2.47;;;8.60;99.90;;;;;;4989818;28;20107;-77
2022/11/05 09:18:59;;;;;;;4.20;2.17;;;8.70;99.90;;;;;;5010378;28;20026;-76
2022/11/05 09:21:24;;;;;;;6.15;3.67;;;8.80;99.90;;;;;;5012377;28;20096;-76
2022/11/05 09:23:50;;;;;;;5.53;3.15;;;9.00;99.90;;;;;;5013272;28;20372;-81
2022/11/05 09:26:16;;;;;;;4.65;3.10;;;9.10;99.90;;;;;;4992403;28;20054;-89
2022/11/05 09:28:42;;;;;;;3.60;2.72;;;9.10;99.90;;;;;;4968305;28;20029;-77
2022/11/05 09:31:10;;;;;;;4.78;2.30;;;9.20;99.90;;;;;;5012293;28;20488;-76
2022/11/05 09:33:37;;;;;;;4.90;2.50;;;9.30;99.90;;;;;;5015647;28;20026;-85
2022/11/05 09:36:03;;;;;;;3.17;2.20;;;9.30;99.90;;;;;;4992111;28;20823;-78
2022/11/05 09:38:31;;;;;;;3.90;2.53;;;9.40;99.90;;;;;;4993484;28;20142;-86
2022/11/05 09:41:27;;;;;;;4.25;2.05;;;9.50;99.90;;;;;;5003237;28;20092;-85
2022/11/05 09:43:58;;;;;;;3.40;2.35;;;9.60;99.90;;;;;;4971174;28;20625;-77
2022/11/05 09:46:26;;;;;;;5.03;2.45;;;9.80;99.90;;;;;;4979893;28;20017;-79
2022/11/05 09:49:01;;;;;;;5.13;1.90;;;9.80;99.90;;;;;;4989297;28;20489;-82
2022/11/05 09:51:26;;;;;;;2.58;1.85;;;9.90;99.90;;;;;;5016339;28;20517;-84
2022/11/05 09:53:58;;;;;;;3.10;2.22;;;10.00;99.90;;;;;;4994174;28;20034;-78
2022/11/05 09:56:28;;;;;;;4.22;1.88;;;10.00;99.90;;;;;;5010859;28;20053;-76
2022/11/05 09:58:56;;;;;;;4.50;2.60;;;10.00;99.90;;;;;;4999663;28;20394;-86
2022/11/05 10:01:31;;;;;;;3.90;2.25;;;10.10;99.90;;;;;;4997636;28;20021;-86
2022/11/05 10:04:00;;;;;;;3.03;1.70;;;10.20;99.90;;;;;;4979924;28;20054;-80
2022/11/05 10:06:27;;;;;;;3.58;2.38;;;10.20;99.90;;;;;;4986030;28;20059;-78
2022/11/05 10:09:18;;;;;;;4.32;2.30;;;10.30;99.90;;;;;;4995527;28;20108;-86
2022/11/05 10:11:53;;;;;;;3.75;1.85;;;10.40;99.90;;;;;;5014262;28;20687;-83
2022/11/05 10:14:26;;;;;;;5.32;2.10;;;10.50;99.90;;;;;;4992835;28;20466;-88
2022/11/05 10:16:57;;;;;;;3.65;2.90;;;10.40;99.90;;;;;;5017296;28;20430;-76
2022/11/05 10:19:29;;;;;;;3.58;2.55;;;10.40;99.90;;;;;;4996599;28;20505;-77
2022/11/05 10:22:07;;;;;;;2.70;1.77;;;10.70;99.90;;;;;;4990846;28;20063;-87
2022/11/05 10:24:33;;;;;;;4.10;1.85;;;10.90;99.90;;;;;;4997710;28;20033;-85
2022/11/05 10:26:59;;;;;;;4.80;2.50;;;11.00;99.90;;;;;;5013510;28;20394;-76
2022/11/05 10:29:29;;;;;;;4.85;2.28;;;11.10;99.90;;;;;;5000359;28;20041;-85
2022/11/05 10:31:57;;;;;;;4.63;2.85;;;11.20;99.90;;;;;;4992427;28;20076;-77
2022/11/05 10:34:28;;;;;;;6.07;3.28;;;11.20;99.90;;;;;;4994026;28;20131;-83
2022/11/05 10:36:54;;;;;;;3.97;2.28;;;11.30;99.90;;;;;;5017635;28;20081;-80
2022/11/05 10:39:20;;;;;;;4.78;2.63;;;11.40;99.90;;;;;;4985092;28;20026;-84
2022/11/05 10:42:14;;;;;;;4.82;2.60;;;11.50;99.90;;;;;;4983575;28;20391;-82
2022/11/05 10:45:03;;;;;;;6.32;2.80;;;11.50;99.90;;;;;;4986649;28;20025;-82
2022/11/05 10:48:02;;;;;;;6.13;2.13;;;11.60;99.90;;;;;;5009817;28;20439;-83
2022/11/05 10:50:29;;;;;;;3.47;1.80;;;11.70;99.90;;;;;;5014889;28;20041;-77
2022/11/05 10:53:00;;;;;;;2.95;1.38;;;11.70;99.90;;;;;;5016345;28;20109;-86
2022/11/05 10:55:39;;;;;;;5.55;3.65;;;11.80;99.90;;;;;;5015629;28;20188;-76
2022/11/05 10:58:26;;;;;;;5.00;3.15;;;11.40;99.90;;;;;;5013782;28;20018;-81
2022/11/05 11:00:51;;;;;;;5.32;1.88;;;11.50;99.90;;;;;;5014836;28;20037;-76
2022/11/05 11:03:50;;;;;;;6.68;2.10;;;11.50;99.90;;;;;;4990626;28;20041;-78
2022/11/05 11:06:27;;;;;;;4.45;2.50;;;11.60;99.90;;;;;;4985109;28;20034;-76
2022/11/05 11:08:59;;;;;;;4.32;2.20;;;11.50;99.90;;;;;;5013930;28;20069;-81
2022/11/05 11:11:30;;;;;;;4.43;2.10;;;11.40;99.90;;;;;;4991143;28;20060;-80
2022/11/05 11:13:55;;;;;;;4.70;2.00;;;11.30;99.90;;;;;;5003929;28;20034;-79
2022/11/05 11:16:23;;;;;;;3.55;1.42;;;11.30;99.90;;;;;;5025591;28;20044;-82
2022/11/05 11:19:01;;;;;;;4.63;1.40;;;11.40;99.90;;;;;;5025066;28;20101;-79
2022/11/05 11:21:29;;;;;;;3.35;1.48;;;11.40;99.90;;;;;;4980748;28;20030;-78
2022/11/05 11:24:05;;;;;;;5.70;2.38;;;11.40;99.90;;;;;;5017672;28;20025;-89
2022/11/05 11:26:39;;;;;;;3.35;1.33;;;11.30;99.90;;;;;;4978302;28;20082;-84
2022/11/05 11:29:19;;;;;;;2.80;1.10;;;11.50;99.90;;;;;;5000808;28;20057;-86
2022/11/05 11:31:45;;;;;;;4.47;2.20;;;11.40;99.90;;;;;;4991845;28;20037;-78
2022/11/05 11:34:28;;;;;;;4.78;1.90;;;11.30;99.90;;;;;;5004482;28;20080;-77
2022/11/05 11:37:02;;;;;;;3.00;1.48;;;11.30;99.90;;;;;;4991640;28;20036;-79
2022/11/05 11:39:30;;;;;;;4.93;2.53;;;11.40;99.90;;;;;;5021713;28;20033;-78
2022/11/05 11:41:59;;;;;;;4.88;2.80;;;11.30;99.90;;;;;;5018956;28;20037;-77
2022/11/05 11:44:32;;;;;;;3.80;2.20;;;11.30;99.90;;;;;;5017708;28;20108;-77
2022/11/05 11:47:03;;;;;;;3.20;1.70;;;11.40;99.90;;;;;;4993959;28;20403;-77
2022/11/05 11:49:52;;;;;;;5.25;2.88;;;11.40;99.90;;;;;;5013305;28;20030;-77
2022/11/05 11:52:36;;;;;;;5.05;2.05;;;11.30;99.90;;;;;;4957384;28;20025;-77
2022/11/05 11:55:11;;;;;;;4.70;1.42;;;11.40;99.90;;;;;;5015118;28;20045;-82
2022/11/05 11:58:06;;;;;;;7.65;3.63;;;11.50;99.90;;;;;;4991511;28;20385;-77
2022/11/05 12:00:40;;;;;;;3.05;1.52;;;11.30;99.90;;;;;;5013961;28;20030;-77
2022/11/05 12:03:35;;;;;;;2.78;1.35;;;11.40;99.90;;;;;;4999175;28;20037;-82
2022/11/05 12:06:17;;;;;;;3.97;1.38;;;11.50;99.90;;;;;;4993930;28;20116;-77
2022/11/05 12:09:03;;;;;;;2.85;1.48;;;11.60;99.90;;;;;;5002680;28;20038;-86
2022/11/05 12:11:34;;;;;;;2.92;1.10;;;11.40;99.90;;;;;;4985778;28;20408;-92
2022/11/05 12:14:32;;;;;;;2.85;1.05;;;11.40;99.90;;;;;;5016102;28;20044;-78
2022/11/05 12:17:20;;;;;;;4.35;1.95;;;11.40;99.90;;;;;;4997516;28;20036;-88
2022/11/05 12:20:11;;;;;;;3.97;1.38;;;11.40;99.90;;;;;;5013110;28;20116;-92
2022/11/05 12:22:36;;;;;;;;;;;11.30;99.90;;;;;;4991188;28;20026;-80
2022/11/05 12:25:26;;;;;;;2.28;0.80;;;11.50;99.90;;;;;;4988633;28;19936;-89
2022/11/05 12:28:28;;;;;;;3.35;1.00;;;11.50;99.90;;;;;;4988470;28;20455;-78
2022/11/05 12:31:10;;;;;;;3.42;0.98;;;11.50;99.90;;;;;;4940981;29;20498;-77
2022/11/05 12:33:50;;;;;;;5.57;2.22;;;11.40;99.90;;;;;;4920917;29;20126;-77
2022/11/05 12:36:24;;;;;;;3.10;1.42;;;11.30;99.90;;;;;;4937836;29;20027;-83
2022/11/05 12:39:15;;;;;;;3.33;1.05;;;11.30;99.90;;;;;;4930311;29;20508;-78
2022/11/05 12:42:05;;;;;;;5.57;1.17;;;11.30;99.90;;;;;;4931488;29;20632;-77
2022/11/05 12:44:33;;;;;;;2.00;0.65;;;11.30;99.90;;;;;;4934771;29;20042;-77
2022/11/05 12:47:26;;;;;;;4.93;1.42;;;11.30;99.90;;;;;;4939905;29;20039;-92
2022/11/05 12:50:15;;;;;;;3.47;1.33;;;11.30;99.90;;;;;;4906538;29;20138;-77
2022/11/05 12:52:44;;;;;;;2.47;0.90;;;11.40;99.90;;;;;;4914008;29;20036;-78
2022/11/05 12:55:14;;;;;;;3.60;1.00;;;11.30;99.90;;;;;;4913584;29;20562;-77
2022/11/05 12:57:43;;;;;;;5.28;1.27;;;11.40;99.90;;;;;;4927697;29;20501;-79
2022/11/05 13:00:17;;;;;;;2.30;0.88;;;11.30;99.90;;;;;;4912660;29;20035;-87
2022/11/05 13:03:07;;;;;;;2.88;1.10;;;11.30;99.90;;;;;;4934298;29;20157;-77
2022/11/05 13:05:44;;;;;;;3.35;1.17;;;11.30;99.90;;;;;;4928935;29;20028;-79
2022/11/05 13:08:32;;;;;;;1.80;0.70;;;11.40;99.90;;;;;;5004186;28;20121;-77
2022/11/05 13:11:14;;;;;;;2.97;0.70;;;11.50;99.90;;;;;;4994475;28;20073;-80
2022/11/05 13:14:03;;;;;;;2.15;0.95;;;11.40;99.90;;;;;;4991070;28;20076;-86
2022/11/05 13:16:39;;;;;;;5.20;1.42;;;11.40;99.90;;;;;;5014903;28;20049;-95
2022/11/05 13:19:23;;;;;;;3.95;1.45;;;11.40;99.90;;;;;;4995949;28;20398;-77
2022/11/05 13:22:14;;;;;;;4.03;1.10;;;11.40;99.90;;;;;;5009293;28;20077;-78
2022/11/05 13:24:56;;;;;;;4.63;1.80;;;11.30;99.90;;;;;;4990153;28;20030;-81
2022/11/05 13:27:43;;;;;;;3.38;1.52;;;11.30;99.90;;;;;;5020642;23;20057;-84
2022/11/05 13:30:20;;;;;;;3.08;1.00;;;11.30;99.90;;;;;;5032591;28;20033;-88
2022/11/05 13:33:03;;;;;;;3.03;1.08;;;11.30;99.90;;;;;;5013947;28;20480;-80
2022/11/05 13:35:35;;;;;;;2.20;0.70;;;11.30;99.90;;;;;;5041553;28;20386;-80
2022/11/05 13:41:24;;;;;;;3.30;0.93;;;11.20;99.90;;;;;;5029555;28;20609;-87
2022/11/05 13:44:22;;;;;;;3.70;1.02;;;11.10;99.90;;;;;;5033303;28;20719;-81
2022/11/05 13:47:00;;;;;;;2.53;1.00;;;11.20;99.90;;;;;;5036859;28;20038;-90
2022/11/05 13:49:31;;;;;;;2.53;0.80;;;11.20;99.90;;;;;;5029868;28;20036;-77
2022/11/05 13:52:15;;;;;;;2.38;0.73;;;11.30;99.90;;;;;;5036962;28;20048;-78
2022/11/05 13:54:55;;;;;;;2.58;0.60;;;11.30;99.90;;;;;;5035748;28;20087;-90
2022/11/05 13:57:30;;;;;;;;;;;11.20;99.90;;;;;;5040287;28;20041;-81
2022/11/05 14:00:02;;;;;;;2.15;0.80;;;11.10;99.90;;;;;;5022393;28;19916;-79
2022/11/05 14:03:01;;;;;;;4.53;1.17;;;11.20;99.90;;;;;;5041445;28;20032;-77